• Join FlightAware (Why Join?)
  • Login
  • US Flag 
11:12PM EDT


 

Airport Tracker/Info


-or-


 

Live Flight TrackerFlight Track Log ✈ QFA797 ✈ 30-Jul-2013 ✈ YBAS / ASP - YMML / MEL

Flight Track Log - Related Links

Times and Time Zones

All times are in EDT time to prevent confusion due to time zone crossing. See the QFA797 flight status page for this flight to view local times or setup timezone preferences in your user account.

Time Position Orientation Groundspeed Altitude Reporting Facility
EDT Latitude Longitude Course Direction KTS MPH feet Rate Location/Type
10:23PM -23.8050 133.9010 119° Southeast 110 127  Level FlightAware
10:24PM -23.8120 133.9140 120° Southeast 153 176 1,800 3,900 Climbing FlightAware
10:24PM -23.8210 133.9300 122° Southeast 157 181 2,800 1,920 Climbing FlightAware
10:24PM -23.8290 133.9450 120° Southeast 186 214 3,200 1,800 Climbing FlightAware
10:25PM -23.8390 133.9630 121° Southeast 207 238 4,000 2,460 Climbing FlightAware
10:25PM -23.8510 133.9800 128° Southeast 218 251 4,900 1,860 Climbing FlightAware
10:25PM -23.8660 133.9950 138° Southeast 245 282 5,300 1,620 Climbing FlightAware
10:26PM -23.8850 134.0050 154° Southeast 266 306 5,900 2,100 Climbing FlightAware
10:26PM -23.9000 134.0090 166° South 274 315 6,300 2,400 Climbing FlightAware
10:26PM -23.9100 134.0090 180° South 277 319 6,700 3,060 Climbing FlightAware
10:26PM -23.9350 134.0060 186° South 275 316 7,800 3,180 Climbing FlightAware
10:27PM -23.9620 134.0000 191° South 278 320 8,900 2,940 Climbing FlightAware
10:27PM -24.0010 134.0080 169° South 290 334 10,300 1,920 Climbing FlightAware
10:28PM -24.0440 134.0340 151° Southeast 331 381 11,000 1,080 Climbing FlightAware
10:28PM -24.0900 134.0630 150° Southeast 373 429 11,500 1,500 Climbing FlightAware
10:29PM -24.1480 134.1000 150° Southeast 393 452 12,800 2,160 Climbing FlightAware
10:29PM -24.2080 134.1370 151° Southeast 407 468 14,200 2,280 Climbing FlightAware
10:30PM -24.2680 134.1750 150° Southeast 422 486 15,600 2,280 Climbing FlightAware
10:30PM -24.3210 134.2080 150° Southeast 432 497 16,800 2,160 Climbing FlightAware
10:31PM -24.3760 134.2430 150° Southeast 443 510 17,900 2,640 Climbing FlightAware
10:32PM -24.4500 134.2890 150° Southeast 437 503 20,000 2,640 Climbing FlightAware
10:32PM -24.5110 134.3280 150° Southeast 442 509 21,300 1,980 Climbing FlightAware
10:33PM -24.5700 134.3650 150° Southeast 450 518 22,300 1,560 Climbing FlightAware
10:33PM -24.6370 134.4070 150° Southeast 464 534 23,100 1,320 Climbing FlightAware
10:34PM -24.7040 134.4500 150° Southeast 475 547 23,900 1,320 Climbing FlightAware
10:35PM -24.7700 134.4920 150° Southeast 484 557 24,700 1,320 Climbing FlightAware
10:35PM -24.8370 134.5340 150° Southeast 494 568 25,400 1,200 Climbing FlightAware
10:36PM -24.9090 134.5800 150° Southeast 501 577 26,100 1,200 Climbing FlightAware
10:36PM -24.9850 134.6280 150° Southeast 508 585 26,900 1,440 Climbing FlightAware
10:37PM -25.0450 134.6670 150° Southeast 508 585 27,800 1,740 Climbing FlightAware
10:37PM -25.1140 134.7110 150° Southeast 505 581 28,800 1,860 Climbing FlightAware
10:38PM -25.1950 134.7630 150° Southeast 497 572 30,100 1,860 Climbing FlightAware
10:39PM -25.2750 134.8140 150° Southeast 491 565 31,300 1,740 Climbing FlightAware
10:39PM -25.3470 134.8600 150° Southeast 485 558 32,400 1,560 Climbing FlightAware
10:40PM -25.4170 134.9050 150° Southeast 487 560 33,200 1,200 Climbing FlightAware
10:40PM -25.4680 134.9380 150° Southeast 488 562 33,700 1,260 Climbing FlightAware
10:41PM -25.5440 134.9870 150° Southeast 488 562 34,600 1,320 Climbing FlightAware
10:42PM -25.6100 135.0290 150° Southeast 486 559 35,300 1,260 Climbing FlightAware
10:42PM -25.6800 135.0750 149° Southeast 485 558 36,100 1,140 Climbing FlightAware
10:43PM -25.7510 135.1210 150° Southeast 486 559 36,700 900 Climbing FlightAware
10:43PM -25.8170 135.1630 150° Southeast 488 562 37,200 960 Climbing FlightAware
10:44PM -25.8830 135.2060 150° Southeast 488 562 37,800 1,080 Climbing FlightAware
10:45PM -25.9590 135.2560 149° Southeast 481 554 38,600 960 Climbing FlightAware
10:45PM -26.0200 135.2950 150° Southeast 479 551 39,000 300 Climbing FlightAware
10:46PM -26.0950 135.3440 150° Southeast 481 554 39,000  Level FlightAware
10:47PM -26.1690 135.3930 149° Southeast 482 555 39,000  Level FlightAware
10:47PM -26.2430 135.4420 149° Southeast 484 557 39,000  Level FlightAware
10:48PM -26.3250 135.4940 150° Southeast 486 559 39,000  Level FlightAware
10:48PM -26.3930 135.5390 149° Southeast 486 559 39,000  Level FlightAware
10:49PM -26.4540 135.5790 150° Southeast 486 559 39,000  Level FlightAware
10:50PM -26.5240 135.6250 150° Southeast 486 559 39,000  Level FlightAware
10:50PM -26.5860 135.6660 149° Southeast 485 558 39,000  Level FlightAware
10:51PM -26.6600 135.7150 149° Southeast 485 558 39,000  Level FlightAware
10:51PM -26.7190 135.7550 149° Southeast 485 558 39,000  Level FlightAware
10:52PM -26.8050 135.8090 151° Southeast 483 556 39,000  Level FlightAware
10:53PM -26.9010 135.8740 149° Southeast 482 555 39,000  Level FlightAware
10:53PM -26.9600 135.9130 149° Southeast 482 555 39,000  Level FlightAware
10:54PM -27.0180 135.9530 148° Southeast 482 555 39,000  Level FlightAware
10:55PM -27.0770 135.9920 150° Southeast 482 555 39,000  Level FlightAware
10:55PM -27.1350 136.0310 149° Southeast 482 555 39,000  Level FlightAware
10:56PM -27.1930 136.0710 148° Southeast 482 555 39,000  Level FlightAware
10:56PM -27.2520 136.1110 149° Southeast 482 555 39,000  Level FlightAware
10:57PM -27.3100 136.1500 149° Southeast 482 555 39,000  Level FlightAware
10:58PM -27.3690 136.1900 149° Southeast 482 555 39,000  Level FlightAware
10:58PM -27.4290 136.2300 149° Southeast 482 555 39,000  Level FlightAware
10:59PM -27.4880 136.2700 149° Southeast 482 555 39,000  Level FlightAware
10:59PM -27.5460 136.3100 149° Southeast 482 555 39,000  Level FlightAware
11:00PM -27.6060 136.3500 149° Southeast 482 555 39,000  Level FlightAware
11:01PM -27.6650 136.3900 149° Southeast 482 555 39,000  Level FlightAware
11:01PM -27.7260 136.4320 149° Southeast 482 555 39,000  Level FlightAware
11:02PM -27.7870 136.4730 149° Southeast 482 555 39,000  Level FlightAware
11:03PM -27.8420 136.5100 149° Southeast 482 555 39,000  Level FlightAware
11:03PM -27.9000 136.5500 149° Southeast 482 555 39,000  Level FlightAware
11:04PM -27.9590 136.5900 149° Southeast 482 555 39,000  Level FlightAware
11:04PM -28.0170 136.6300 149° Southeast 482 555 39,000  Level FlightAware
11:05PM -28.0760 136.6690 150° Southeast 482 555 39,000  Level FlightAware
11:06PM -28.1340 136.7090 149° Southeast 482 555 39,000  Level FlightAware
11:06PM -28.1930 136.7490 149° Southeast 482 555 39,000  Level FlightAware
11:07PM -28.2510 136.7890 149° Southeast 482 555 39,000  Level FlightAware
11:07PM -28.3100 136.8290 149° Southeast 482 555 39,000  Level FlightAware
11:10PM -28.5405 137.0031 146° Southeast  Level Estimated
11:11PM -28.6451 137.0825 146° Southeast  Level Estimated
11:12PM -28.7498 137.1620 146° Southeast  Level Estimated
11:13PM -28.8544 137.2418 146° Southeast  Level Estimated
11:14PM -28.9589 137.3216 146° Southeast  Level Estimated
11:15PM -29.0634 137.4017 146° Southeast  Level Estimated
11:16PM -29.1679 137.4819 146° Southeast  Level Estimated
11:17PM -29.2723 137.5622 146° Southeast  Level Estimated
11:18PM -29.3766 137.6427 146° Southeast  Level Estimated
11:19PM -29.4809 137.7234 146° Southeast  Level Estimated
11:20PM -29.5852 137.8043 146° Southeast  Level Estimated
11:21PM -29.6894 137.8853 146° Southeast  Level Estimated
11:22PM -29.7936 137.9665 146° Southeast  Level Estimated
11:23PM -29.8977 138.0478 146° Southeast  Level Estimated
11:24PM -30.0017 138.1294 146° Southeast  Level Estimated
11:25PM -30.1057 138.2111 146° Southeast  Level Estimated
11:26PM -30.2097 138.2929 146° Southeast  Level Estimated
11:27PM -30.3136 138.3750 146° Southeast  Level Estimated
11:28PM -30.4175 138.4572 146° Southeast  Level Estimated
11:29PM -30.5213 138.5396 146° Southeast  Level Estimated
11:30PM -30.6250 138.6222 146° Southeast  Level Estimated
11:31PM -30.7287 138.7049 146° Southeast  Level Estimated
11:32PM -30.8324 138.7878 146° Southeast  Level Estimated
11:33PM -30.9360 138.8709 145° Southeast  Level Estimated
11:34PM -31.0395 138.9542 145° Southeast  Level Estimated
11:35PM -31.1430 139.0377 145° Southeast  Level Estimated
11:36PM -31.2464 139.1213 145° Southeast  Level Estimated
11:37PM -31.3498 139.2052 145° Southeast  Level Estimated
11:38PM -31.4531 139.2892 145° Southeast  Level Estimated
11:38PM -31.8930 139.7840 145° Southeast 496 571 39,000  Level FlightAware
11:38PM -31.9780 139.8750 138° Southeast 496 571 39,000  Level FlightAware
11:39PM -31.5564 139.3734 145° Southeast  Level Estimated
11:39PM -32.0320 139.9330 138° Southeast 496 571 39,000  Level FlightAware
11:40PM -32.0850 139.9910 137° Southeast 496 571 39,000  Level FlightAware
11:40PM -32.1580 140.0680 138° Southeast 489 563 39,000  Level FlightAware
11:41PM -32.2250 140.1400 138° Southeast 489 563 39,000  Level FlightAware
11:41PM -32.2830 140.2030 137° Southeast 489 563 39,000  Level FlightAware
11:42PM -32.3480 140.2730 138° Southeast 495 570 39,000  Level FlightAware
11:43PM -32.4120 140.3430 137° Southeast 495 570 39,000  Level FlightAware
11:43PM -32.4730 140.4090 138° Southeast 493 567 39,000  Level FlightAware
11:44PM -32.5430 140.4840 138° Southeast 493 567 39,000  Level FlightAware
11:45PM -32.6000 140.5460 138° Southeast 493 567 39,000  Level FlightAware
11:45PM -32.6640 140.6170 137° Southeast 495 570 39,000  Level FlightAware
11:46PM -32.7260 140.6840 138° Southeast 497 572 39,000  Level FlightAware
11:46PM -32.7760 140.7390 137° Southeast 497 572 39,000  Level FlightAware
11:47PM -32.8370 140.8060 137° Southeast 499 574 39,000  Level FlightAware
11:48PM -32.9050 140.8810 137° Southeast 498 573 39,000  Level FlightAware
11:48PM -32.9670 140.9490 137° Southeast 497 572 39,000  Level FlightAware
11:49PM -33.0330 141.0220 137° Southeast 496 571 39,000  Level FlightAware
11:49PM -33.0910 141.0860 137° Southeast 495 570 39,000  Level FlightAware
11:50PM -33.1400 141.1400 137° Southeast 494 568 39,000  Level FlightAware
11:51PM -33.1920 141.1980 137° Southeast 494 568 39,000  Level FlightAware
11:51PM -33.2590 141.2730 137° Southeast 492 566 39,000  Level FlightAware
11:52PM -33.3330 141.3550 137° Southeast 492 566 39,000  Level FlightAware
11:52PM -33.3870 141.4160 137° Southeast 493 567 39,000  Level FlightAware
11:53PM -33.4470 141.4830 137° Southeast 493 567 39,000  Level FlightAware
11:54PM -33.5030 141.5460 137° Southeast 493 567 39,000  Level FlightAware
11:54PM -33.5620 141.6120 137° Southeast 492 566 39,000  Level FlightAware
11:55PM -33.6200 141.6770 137° Southeast 491 565 39,000  Level FlightAware
11:55PM -33.6780 141.7430 137° Southeast 490 564 39,000  Level FlightAware
11:56PM -33.7360 141.8070 137° Southeast 490 564 39,000  Level FlightAware
11:57PM -33.7960 141.8760 136° Southeast 490 564 39,000  Level FlightAware
11:57PM -33.8530 141.9410 137° Southeast 489 563 39,000  Level FlightAware
11:58PM -33.9080 142.0030 137° Southeast 488 562 39,000  Level FlightAware
11:58PM -33.9660 142.0690 137° Southeast 487 560 39,000  Level FlightAware
11:59PM -34.0230 142.1350 136° Southeast 486 559 39,000  Level FlightAware
11:59PM -34.0800 142.1990 137° Southeast 485 558 39,000  Level FlightAware
12:00AM -34.1390 142.2660 137° Southeast 482 555 39,000  Level FlightAware
12:01AM -34.1860 142.3200 136° Southeast 480 552 39,000  Level FlightAware
12:01AM -34.2510 142.3950 136° Southeast 478 550 39,000  Level FlightAware
12:02AM -34.3070 142.4600 136° Southeast 477 549 39,000  Level FlightAware
12:02AM -34.3620 142.5230 137° Southeast 477 549 39,000  Level FlightAware
12:03AM -34.4160 142.5860 136° Southeast 478 550 39,000  Level FlightAware
12:04AM -34.4790 142.6580 146° Southeast 477 549 39,000  Level FlightAware
12:04AM -34.5350 142.7240 136° Southeast 478 550 39,000  Level FlightAware
12:05AM -34.5910 142.7890 136° Southeast 477 549 39,000  Level FlightAware
12:05AM -34.6560 142.8660 136° Southeast 475 547 39,000  Level FlightAware
12:06AM -34.7110 142.9300 136° Southeast 475 547 39,000  Level FlightAware
12:07AM -34.7680 142.9970 136° Southeast 475 547 39,000  Level FlightAware
12:07AM -34.8240 143.0610 137° Southeast 475 547 39,000  Level FlightAware
12:08AM -34.8800 143.1280 136° Southeast 474 545 39,000  Level FlightAware
12:08AM -34.9350 143.1920 136° Southeast 473 544 39,000  Level FlightAware
12:09AM -34.9940 143.2510 141° Southeast 454 522 39,000  Level FlightAware
12:09AM -35.0580 143.2990 148° Southeast 455 524 39,000  Level FlightAware
12:10AM -35.1200 143.3460 148° Southeast 455 524 39,000  Level FlightAware
12:11AM -35.1750 143.3870 149° Southeast 456 525 39,000  Level FlightAware
12:11AM -35.2460 143.4410 148° Southeast 458 527 39,000  Level FlightAware
12:12AM -35.3090 143.4900 148° Southeast 459 528 39,000  Level FlightAware
12:12AM -35.3580 143.5270 148° Southeast 460 529 39,000  Level FlightAware
12:13AM -35.4360 143.5860 148° Southeast 455 524 39,000  Level FlightAware
12:14AM -35.4990 143.6340 148° Southeast 456 525 39,000  Level FlightAware
12:14AM -35.5630 143.6830 148° Southeast 456 525 39,000  Level FlightAware
12:15AM -35.6260 143.7310 148° Southeast 458 527 39,000  Level FlightAware
12:15AM -35.6910 143.7810 148° Southeast 461 531 39,000 -120 Level FlightAware
12:16AM -35.7550 143.8300 148° Southeast 463 533 38,900 -600 Descending FlightAware
12:16AM -35.8190 143.8800 148° Southeast 454 522 38,300 -1,080 Descending FlightAware
12:17AM -35.8810 143.9270 148° Southeast 453 521 37,700 -1,140 Descending FlightAware
12:18AM -35.9440 143.9750 148° Southeast 453 521 37,000 -2,100 Descending FlightAware
12:18AM -36.0050 144.0230 148° Southeast 455 524 35,300 -2,880 Descending FlightAware
12:19AM -36.0690 144.0720 148° Southeast 444 511 33,700 -2,760 Descending FlightAware
12:19AM -36.1290 144.1190 148° Southeast 436 502 32,100 -2,880 Descending FlightAware
12:20AM -36.1900 144.1670 148° Southeast 426 490 30,400 -2,760 Descending FlightAware
12:21AM -36.2480 144.2120 148° Southeast 416 479 28,900 -2,520 Descending FlightAware
12:21AM -36.3060 144.2570 148° Southeast 415 478 27,500 -2,400 Descending FlightAware
12:21AM -36.3390 144.2830 148° Southeast 404 465 26,700 -2,280 Descending FlightAware
12:22AM -36.4240 144.3490 148° Southeast 398 458 24,700 -2,340 Descending FlightAware
12:23AM -36.4780 144.3920 147° Southeast 381 438 23,300 -2,160 Descending FlightAware
12:24AM -36.5380 144.4370 149° Southeast 363 418 22,000 -2,040 Descending FlightAware
12:24AM -36.5910 144.4620 159° South 345 397 20,800 -2,400 Descending FlightAware
12:25AM -36.6460 144.4880 159° South 340 391 19,200 -2,220 Descending FlightAware
12:25AM -36.6950 144.5100 160° South 339 390 18,200 -1,920 Descending FlightAware
12:26AM -36.7480 144.5340 160° South 342 394 17,000 -2,040 Descending FlightAware
12:27AM -36.7990 144.5580 159° South 339 390 15,900 -1,980 Descending FlightAware
12:27AM -36.8520 144.5830 159° South 332 382 14,700 -1,980 Descending FlightAware
12:28AM -36.9000 144.6060 159° South 325 374 13,600 -1,920 Descending FlightAware
12:28AM -36.9510 144.6290 160° South 319 367 12,500 -1,920 Descending FlightAware
12:29AM -36.9990 144.6520 159° South 313 360 11,400 -2,040 Descending FlightAware
12:30AM -37.0510 144.6760 160° South 313 360 10,000 -1,620 Descending FlightAware
12:30AM -37.0750 144.6880 158° South 300 345 9,800 -600 Descending FlightAware
12:30AM -37.0900 144.6950 160° South 288 331 9,700 -600 Descending FlightAware
12:30AM -37.1150 144.7060 161° South 274 315 9,500 -1,080 Descending FlightAware
12:31AM -37.1440 144.7200 159° South 270 311 8,900 -1,500 Descending FlightAware
12:31AM -37.1690 144.7310 161° South 265 305 8,400 -1,380 Descending FlightAware
12:31AM -37.1910 144.7360 170° South 261 300 8,000 -1,380 Descending FlightAware
12:32AM -37.2090 144.7400 170° South 259 298 7,600 -1,560 Descending FlightAware
12:32AM -37.2340 144.7450 171° South 257 296 7,100 -1,380 Descending FlightAware
12:32AM -37.2520 144.7490 170° South 260 299 6,800 -1,380 Descending FlightAware
12:33AM -37.2760 144.7540 171° South 266 306 6,300 -1,080 Descending FlightAware
12:33AM -37.3120 144.7620 170° South 255 293 5,900 -780 Descending FlightAware
12:33AM -37.3230 144.7640 172° South 249 287 5,800 -900 Descending FlightAware
12:34AM -37.3560 144.7720 169° South 240 276 5,300 -840 Descending FlightAware
12:34AM -37.3770 144.7780 167° South 230 265 5,100 -540 Descending FlightAware
12:34AM -37.3900 144.7810 170° South 230 265 5,000 -540 Descending FlightAware
12:35AM -37.4130 144.7860 170° South 220 253 4,800 -540 Descending FlightAware
12:35AM -37.4270 144.7900 167° South 216 249 4,700 -900 Descending FlightAware
12:35AM -37.4470 144.7940 171° South 210 242 4,300 -1,200 Descending FlightAware
12:36AM -37.4660 144.7990 168° South 198 228 3,900 -1,080 Descending FlightAware
12:36AM -37.4910 144.8050 169° South 182 209 3,400 -960 Descending FlightAware
12:37AM -37.5140 144.8090 172° South 177 204 3,000 -900 Descending FlightAware
12:37AM -37.5300 144.8120 172° South 173 199 2,700 -1,080 Descending FlightAware
12:37AM -37.5400 144.8140 171° South 171 197 2,400 -1,080 Descending FlightAware
12:37AM -37.5570 144.8170 172° South 168 193 2,100 -840 Descending FlightAware
12:38AM -37.5740 144.8200 172° South 161 185 1,800 -780 Descending FlightAware
12:38AM -37.5810 144.8210 174° South 156 180 1,700 -840 Descending FlightAware
12:39AM -37.6050 144.8260 171° South 143 165 1,200 -900 Descending FlightAware
12:39AM -37.6180 144.8280 173° South 144 166 900 -780 Descending FlightAware
12:39AM -37.6300 144.8310 169° South 144 166 700 -720 Descending FlightAware
12:40AM -37.6390 144.8320 175° South 140 161 500 -840 Descending FlightAware
12:40AM -37.6510 144.8340 172° South 138 159 300 2,100 Descending FlightAware
12:40AM -37.6640 144.8370 170° South 84 97 2,100 Descending FlightAware
12:58AM -31.9173 139.8101 38° Northeast 498 573 39,300 1,500 Climbing Aus ATC (RADAR)
01:06AM -31.9258 139.8189 139° Southeast 499 574 39,300  Level Aus ATC (RADAR)
01:14AM -31.9340 139.8271 140° Southeast 498 573 39,300  Level Aus ATC (RADAR)
01:22AM -31.9427 139.8363 138° Southeast 498 573 39,300  Level Aus ATC (RADAR)
01:31AM -31.9512 139.8450 139° Southeast 497 572 39,300  Level Aus ATC (RADAR)